Latest Observation

25 Stations

15 Minute Data | America/Los_Angeles
as of 9/4/26 1:20 PM PDT
Station Date Time Temp (°F) RH (%) Dew Pt (°F) Wind Spd (mph) Wind Dir (°) Wind Gust (mph) Latest Rain (In) Daily Rain (In) Daily Min Temp (°F) Daily Max Temp (°F)
Rockpile Upper (Cooley) 9/4/26 1315 66.8   4.4 42   30 43.0   10.2 3.6   0.6 NNW | 331 11.2   1.5 0.00 0.00 47.4   4.8 68.1   5.2
Rockpile Lower (Cooley) 9/4/26 1300 69.1   4.1 38   28 42.4   10.9 5.8   1.9 W | 262 11.9   2.1 0.00 0.00 50.3   4.5 70.1   3.6
Cloverdale-East (Ranch 83) 9/4/26 1315 75.2   4.8 - - 2.7   1.4 NE | 50 7.7   0.8 0.00 0.00 43.5   14.8 75.9   5.2
Cloverdale-SE (Ranch 38) 9/4/26 1315 72.0   2.8 40   24 46.3   10.0 5.9   2.5 NNW | 334 14.7   8.2 0.00 0.00 50.3   7.1 73.6   3.1
Geyserville-North (Hoffman) 9/4/26 1315 75.7   3.7 36   23 46.8   10.3 4.9   1.2 W | 274 10.7   1.8 0.00 0.00 45.5   13.9 76.5   3.9
Geyserville (Ranch 3) 9/4/26 1315 74.9   2.8 32   22 43.3   11.3 4.9   3.4 WNW | 299 10.9   4.4 0.00 0.00 46.9   12.1 75.3   2.3
Geyserville-East (Ranch 40) 9/4/26 1315 72.7   5.7 37   37 44.7   13.6 6.5   0.5 W | 276 13.9   3.4 0.00 0.00 50.0   7.4 74.5   5.7
Geyserville-South (Nervo Station) 9/4/26 1315 79.4   9.6 - - 2.7   1.7 N | 0 6.4   3.4 0.00 0.00 48.4   9.4 80.5   10.2
Peterson (Ranch 09) 9/4/26 1315 73.7   4.6 30   39 40.1   18.4 5.6   0.7 NNW | 343 10.9   1.0 0.00 0.00 44.6   12.0 74.5   5.0
Crazy Creek Ranch 9/4/26 1315 75.6   5.6 36   38 47.0   14.6 3.4   0.7 W | 276 9.8   0.5 0.00 0.01 46.4   10.6 75.8   5.6
Whitton Ranch (201e) 9/4/26 1315 75.7   2.9 29   30 41.4   16.5 5.1   1.5 N | 349 9.8   2.6 0.00 0.00 42.4   14.1 77.2   3.7
Lytton East (Shop Hill Bottom) 9/4/26 1315 75.5   4.9 31   30 42.7   13.7 4.6   0.2 WSW | 249 11.8   2.7 0.00 0.00 45.4   12.5 76.4   5.1
Lytton East (Hill 5) 9/4/26 1315 74.9   4.9 32   31 43.3   13.4 6.9   0.1 WSW | 254 15.0   3.2 0.00 0.00 47.6   10.2 75.6   4.7
Lytton West Lower (Lew 6) 9/4/26 1315 74.5   3.4 32   29 42.6   14.2 4.2   0.4 WNW | 287 10.6   0.1 0.00 0.00 45.6   12.5 74.9   3.0
Lytton West Hill (23PS) 9/4/26 1315 74.7   3.3 33   27 43.9   13.0 4.4   0.7 NW | 320 10.2   0.8 0.00 0.00 48.5   10.1 75.1   3.0
Big River 9/4/26 1315 73.4   5.3 39   40 46.7   14.5 3.6   2.0 WSW | 255 10.2   1.2 0.00 0.00 48.0   10.3 74.0   5.7
Jimtown-North (Piccolo Ranch 15) 9/4/26 1315 74.9   4.4 28   38 39.1   19.3 3.9   1.3 SW | 233 14.0   6.1 0.00 0.01 46.8   9.1 76.4   5.5
HWY 128/Chalk Hill Rd (Landslide) 9/4/26 1300 75.5   7.1 41   34 50.0   10.2 2.6   2.2 SSW | 197 6.7   1.8 0.00 0.00 47.9   9.3 76.0   6.9
N Chalk Hill Rd (Ranch 63) 9/4/26 1315 74.5   6.1 37   34 46.8   12.0 3.4   1.4 WSW | 248 7.2   3.3 0.00 0.01 46.9   6.9 75.3   6.5
Newman Knights Valley 8/18/26 0015 56.2   1.8 85   4 51.7   0.4 0.8   3.5 NE | 55 2.3   5.8 0.00 0.00 55.0   1.2 88.3   0.6
Knights Valley (Bavarian Lion) 9/4/26 1315 72.4   4.4 41   29 47.6   10.5 4.7   0.8 WNW | 295 9.6   1.9 0.00 0.00 47.7   5.2 73.0   4.3
Red Tail 9/4/26 1315 74.7   6.5 44   31 51.6   8.7 2.4   2.4 S | 172 7.6   3.9 0.00 0.00 45.6   9.7 75.2   6.4
Franz Valley (Stornetta) 9/4/26 1315 71.9   5.2 45   32 49.6   9.6 2.7   0.0 WSW | 255 6.3   1.7 0.00 0.01 48.1   5.6 72.3   4.8
Upper Dry Creek Valley 9/4/26 1315 75.2   3.8 34   19 45.1   8.7 4.3   0.0 WNW | 282 10.8   0.4 0.00 0.00 44.3   14.8 75.9   4.1
Lower Dry Creek Valley 9/4/26 1315 75.1   3.4 32   25 43.6   12.6 3.7   2.5 WNW | 303 10.4   2.2 0.00 0.00 47.5   10.9 76.0   3.6
Max     79.4 45 51.6 6.9 - 15.0 0.00 0.01 50.3 80.5
Avg     74.1 36 44.9 4.3 - 10.3 0.00 - - -
Min     66.8 28 39.1 2.4 - 6.3 0.00 0.00 42.4 68.1